Impacts METAR Board
IDs:

KMEI - Meridian/Key Fld, MS, US

Updated at: 0400 UTC 18 Oct 2018
Potential Impact None Slight Moderate High
Time 17/16Z 17/17Z 17/18Z 17/19Z 17/20Z 17/21Z 17/22Z 17/23Z 18/00Z 18/01Z 18/02Z 18/03Z 18/04Z
Temp63 63 64 63 63 61 61
Dewpt59 58 59 59 55 54 54
Altim30.28 30.28 30.27 30.26 30.27 30.27 30.28 30.31 30.32
VIS9 10 10 10 10 10 10
CIG6 9 -- -- 50 50 40 50 50
CoverOVCOVC----BKNBKNBKNBKNBKN
FltCatIFRIFRVFRVFRVFRVFRVFR
WX-RA----------------
WDir3030102080
WSpd9 10 6 9 8
WGst-- -- -- -- -- -- -- -- --
Raw hourly METARs
KMEI 171558Z 03009KT 9SM -RA OVC006 17/15 A3028 RMK AO2 RAE00B50 CIG 006V009 SLP251 P0000 T01720150 $
KMEI 171658Z 03010KT 10SM BKN009 OVC028 17/14 A3028 RMK AO2 RAE04 CIG 006V012 SLP251 P0000 T01720144 $
KMEI 171758Z A3027 RMK AO2 SLPNO 60000 10178 20156 $
KMEI 171858Z AUTO A3026 RMK AO2 SLPNO PWINO FZRANO $


KMEI 172158Z 020/12KT 10SM FEW009 BKN050 18/15 A3027
KMEI 172258Z 010/05KT 10SM FEW016 BKN050 17/15 A3027
KMEI 172358Z 01006KT 10SM BKN040 17/13 A3028

KMEI 180158Z 02009KT 10SM BKN050 16/12 A3031 RMK AO2 SLPNO T01610122 $
KMEI 180258Z 08008KT 10SM BKN050 16/12 A3032 RMK AO2 SLPNO T01610122 $




Page loaded:  04:34 UTC  |   09:34 PM Pacific  |   10:34 PM Mountain  |   11:34 PM Central  |   12:34 AM Eastern

 

ADVISORIES

FORECASTS

FORECASTS

OBSERVATIONS

USER TOOLS

ABOUT US